sensor_id;sensor_type;location;lat;lon;timestamp;P1;durP1;ratioP1;P2;durP2;ratioP2
39102;SDS011;24847;48.218;16.414;2023-04-25T00:03:15;1.05;;;0.70;;
39102;SDS011;24847;48.218;16.414;2023-04-25T00:08:18;0.63;;;0.60;;
39102;SDS011;24847;48.218;16.414;2023-04-25T00:13:22;0.50;;;0.50;;
39102;SDS011;24847;48.218;16.414;2023-04-25T00:18:25;0.90;;;0.60;;
39102;SDS011;24847;48.218;16.414;2023-04-25T00:23:28;0.90;;;0.70;;
39102;SDS011;24847;48.218;16.414;2023-04-25T00:28:32;0.82;;;0.73;;
39102;SDS011;24847;48.218;16.414;2023-04-25T00:33:34;0.70;;;0.70;;
39102;SDS011;24847;48.218;16.414;2023-04-25T00:38:37;1.08;;;0.90;;
39102;SDS011;24847;48.218;16.414;2023-04-25T00:43:40;0.80;;;0.77;;
39102;SDS011;24847;48.218;16.414;2023-04-25T00:48:43;1.38;;;0.80;;
39102;SDS011;24847;48.218;16.414;2023-04-25T00:53:45;0.85;;;0.80;;
39102;SDS011;24847;48.218;16.414;2023-04-25T00:58:50;1.17;;;0.90;;
39102;SDS011;24847;48.218;16.414;2023-04-25T01:03:56;1.83;;;0.90;;
39102;SDS011;24847;48.218;16.414;2023-04-25T01:09:00;0.98;;;0.88;;
39102;SDS011;24847;48.218;16.414;2023-04-25T01:14:06;1.30;;;1.00;;
39102;SDS011;24847;48.218;16.414;2023-04-25T01:19:08;1.67;;;0.90;;
39102;SDS011;24847;48.218;16.414;2023-04-25T01:24:13;1.00;;;0.90;;
39102;SDS011;24847;48.218;16.414;2023-04-25T01:29:16;1.00;;;0.95;;
39102;SDS011;24847;48.218;16.414;2023-04-25T01:34:19;1.00;;;0.90;;
39102;SDS011;24847;48.218;16.414;2023-04-25T01:39:23;0.82;;;0.82;;
39102;SDS011;24847;48.218;16.414;2023-04-25T01:44:26;1.20;;;1.08;;
39102;SDS011;24847;48.218;16.414;2023-04-25T01:49:28;1.10;;;1.00;;
39102;SDS011;24847;48.218;16.414;2023-04-25T01:54:32;1.00;;;0.90;;
39102;SDS011;24847;48.218;16.414;2023-04-25T01:59:34;1.05;;;0.68;;
39102;SDS011;24847;48.218;16.414;2023-04-25T02:04:37;1.17;;;0.95;;
39102;SDS011;24847;48.218;16.414;2023-04-25T02:09:41;1.05;;;0.95;;
39102;SDS011;24847;48.218;16.414;2023-04-25T02:14:43;1.55;;;1.10;;
39102;SDS011;24847;48.218;16.414;2023-04-25T02:19:45;1.65;;;1.10;;
39102;SDS011;24847;48.218;16.414;2023-04-25T02:24:49;1.02;;;0.93;;
39102;SDS011;24847;48.218;16.414;2023-04-25T02:29:51;1.08;;;0.98;;
39102;SDS011;24847;48.218;16.414;2023-04-25T02:34:53;1.20;;;1.10;;
39102;SDS011;24847;48.218;16.414;2023-04-25T02:39:57;0.95;;;0.90;;
39102;SDS011;24847;48.218;16.414;2023-04-25T02:44:59;1.17;;;0.93;;
39102;SDS011;24847;48.218;16.414;2023-04-25T02:50:02;0.98;;;0.88;;
39102;SDS011;24847;48.218;16.414;2023-04-25T02:55:07;1.85;;;1.13;;
39102;SDS011;24847;48.218;16.414;2023-04-25T03:00:11;1.40;;;1.30;;
39102;SDS011;24847;48.218;16.414;2023-04-25T03:05:15;1.20;;;1.08;;
39102;SDS011;24847;48.218;16.414;2023-04-25T03:10:19;1.30;;;1.20;;
39102;SDS011;24847;48.218;16.414;2023-04-25T03:15:21;1.60;;;1.20;;
39102;SDS011;24847;48.218;16.414;2023-04-25T03:20:24;1.30;;;1.20;;
39102;SDS011;24847;48.218;16.414;2023-04-25T03:25:27;1.45;;;1.33;;
39102;SDS011;24847;48.218;16.414;2023-04-25T03:30:30;1.70;;;1.30;;
39102;SDS011;24847;48.218;16.414;2023-04-25T03:35:32;1.33;;;1.15;;
39102;SDS011;24847;48.218;16.414;2023-04-25T03:40:36;1.55;;;1.20;;
39102;SDS011;24847;48.218;16.414;2023-04-25T03:45:38;1.42;;;1.25;;
39102;SDS011;24847;48.218;16.414;2023-04-25T03:50:40;1.15;;;1.00;;
39102;SDS011;24847;48.218;16.414;2023-04-25T03:55:44;1.67;;;1.25;;
39102;SDS011;24847;48.218;16.414;2023-04-25T04:00:46;2.00;;;1.27;;
39102;SDS011;24847;48.218;16.414;2023-04-25T04:05:48;2.42;;;1.27;;
39102;SDS011;24847;48.218;16.414;2023-04-25T04:10:52;1.30;;;1.20;;
39102;SDS011;24847;48.218;16.414;2023-04-25T04:15:55;3.65;;;1.58;;
39102;SDS011;24847;48.218;16.414;2023-04-25T04:20:57;1.35;;;1.25;;
39102;SDS011;24847;48.218;16.414;2023-04-25T04:26:01;1.83;;;1.55;;
39102;SDS011;24847;48.218;16.414;2023-04-25T04:31:03;2.03;;;1.42;;
39102;SDS011;24847;48.218;16.414;2023-04-25T04:36:06;2.47;;;1.23;;
39102;SDS011;24847;48.218;16.414;2023-04-25T04:41:10;2.00;;;1.35;;
39102;SDS011;24847;48.218;16.414;2023-04-25T04:46:12;2.00;;;1.42;;
39102;SDS011;24847;48.218;16.414;2023-04-25T04:51:15;1.55;;;1.25;;
39102;SDS011;24847;48.218;16.414;2023-04-25T04:56:18;1.45;;;1.35;;
39102;SDS011;24847;48.218;16.414;2023-04-25T05:01:23;2.28;;;1.63;;
39102;SDS011;24847;48.218;16.414;2023-04-25T05:06:27;2.35;;;1.48;;
39102;SDS011;24847;48.218;16.414;2023-04-25T05:11:31;3.17;;;1.70;;
39102;SDS011;24847;48.218;16.414;2023-04-25T05:16:33;1.88;;;1.63;;
39102;SDS011;24847;48.218;16.414;2023-04-25T05:21:36;1.63;;;1.50;;
39102;SDS011;24847;48.218;16.414;2023-04-25T05:26:39;2.10;;;1.48;;
39102;SDS011;24847;48.218;16.414;2023-04-25T05:31:42;1.70;;;1.35;;
39102;SDS011;24847;48.218;16.414;2023-04-25T05:36:45;2.75;;;1.55;;
39102;SDS011;24847;48.218;16.414;2023-04-25T05:41:50;3.35;;;1.85;;
39102;SDS011;24847;48.218;16.414;2023-04-25T05:46:52;1.77;;;1.67;;
39102;SDS011;24847;48.218;16.414;2023-04-25T05:51:55;2.22;;;1.75;;
39102;SDS011;24847;48.218;16.414;2023-04-25T05:56:59;1.67;;;1.55;;
39102;SDS011;24847;48.218;16.414;2023-04-25T06:02:02;2.88;;;1.88;;
39102;SDS011;24847;48.218;16.414;2023-04-25T06:07:05;2.50;;;1.63;;
39102;SDS011;24847;48.218;16.414;2023-04-25T06:12:08;1.95;;;1.67;;
39102;SDS011;24847;48.218;16.414;2023-04-25T06:17:11;2.58;;;1.67;;
39102;SDS011;24847;48.218;16.414;2023-04-25T06:22:13;2.00;;;1.60;;
39102;SDS011;24847;48.218;16.414;2023-04-25T06:27:17;2.33;;;1.35;;
39102;SDS011;24847;48.218;16.414;2023-04-25T06:32:22;6.82;;;5.38;;
39102;SDS011;24847;48.218;16.414;2023-04-25T06:37:25;2.55;;;2.10;;
39102;SDS011;24847;48.218;16.414;2023-04-25T06:42:29;2.63;;;1.70;;
39102;SDS011;24847;48.218;16.414;2023-04-25T06:47:31;2.53;;;1.48;;
39102;SDS011;24847;48.218;16.414;2023-04-25T06:52:33;1.92;;;1.40;;
39102;SDS011;24847;48.218;16.414;2023-04-25T06:57:37;1.70;;;1.35;;
39102;SDS011;24847;48.218;16.414;2023-04-25T07:02:39;1.90;;;1.60;;
39102;SDS011;24847;48.218;16.414;2023-04-25T07:07:43;2.05;;;1.70;;
39102;SDS011;24847;48.218;16.414;2023-04-25T07:12:47;1.58;;;1.48;;
39102;SDS011;24847;48.218;16.414;2023-04-25T07:17:49;1.42;;;1.33;;
39102;SDS011;24847;48.218;16.414;2023-04-25T07:22:51;1.40;;;1.23;;
39102;SDS011;24847;48.218;16.414;2023-04-25T07:27:55;2.33;;;1.60;;
39102;SDS011;24847;48.218;16.414;2023-04-25T07:32:57;2.10;;;1.90;;
39102;SDS011;24847;48.218;16.414;2023-04-25T07:38:00;2.47;;;1.60;;
39102;SDS011;24847;48.218;16.414;2023-04-25T07:43:04;2.13;;;1.67;;
39102;SDS011;24847;48.218;16.414;2023-04-25T07:48:06;2.70;;;1.63;;
39102;SDS011;24847;48.218;16.414;2023-04-25T07:53:09;1.55;;;1.45;;
39102;SDS011;24847;48.218;16.414;2023-04-25T07:58:12;1.50;;;1.35;;
39102;SDS011;24847;48.218;16.414;2023-04-25T08:03:15;1.50;;;1.40;;
39102;SDS011;24847;48.218;16.414;2023-04-25T08:08:17;2.88;;;1.67;;
39102;SDS011;24847;48.218;16.414;2023-04-25T08:13:21;1.52;;;1.42;;
39102;SDS011;24847;48.218;16.414;2023-04-25T08:18:23;2.22;;;1.45;;
39102;SDS011;24847;48.218;16.414;2023-04-25T08:23:26;1.67;;;1.45;;
39102;SDS011;24847;48.218;16.414;2023-04-25T08:28:29;1.85;;;1.33;;
39102;SDS011;24847;48.218;16.414;2023-04-25T08:33:33;1.45;;;1.35;;
39102;SDS011;24847;48.218;16.414;2023-04-25T08:43:44;1.83;;;1.63;;
39102;SDS011;24847;48.218;16.414;2023-04-25T08:48:48;2.47;;;1.60;;
39102;SDS011;24847;48.218;16.414;2023-04-25T08:53:52;1.42;;;1.27;;
39102;SDS011;24847;48.218;16.414;2023-04-25T08:58:56;1.88;;;1.30;;
39102;SDS011;24847;48.218;16.414;2023-04-25T09:03:58;1.90;;;1.33;;
39102;SDS011;24847;48.218;16.414;2023-04-25T09:09:02;1.63;;;1.20;;
39102;SDS011;24847;48.218;16.414;2023-04-25T09:14:14;1.65;;;1.08;;
39102;SDS011;24847;48.218;16.414;2023-04-25T09:19:20;1.33;;;1.17;;
39102;SDS011;24847;48.218;16.414;2023-04-25T09:24:30;2.05;;;1.20;;
39102;SDS011;24847;48.218;16.414;2023-04-25T09:29:39;1.45;;;1.05;;
39102;SDS011;24847;48.218;16.414;2023-04-25T09:34:42;1.25;;;1.15;;
39102;SDS011;24847;48.218;16.414;2023-04-25T09:39:49;1.60;;;1.27;;
39102;SDS011;24847;48.218;16.414;2023-04-25T09:44:56;2.72;;;1.63;;
39102;SDS011;24847;48.218;16.414;2023-04-25T09:49:59;2.47;;;1.80;;
39102;SDS011;24847;48.218;16.414;2023-04-25T09:55:01;1.55;;;1.45;;
39102;SDS011;24847;48.218;16.414;2023-04-25T10:00:05;1.38;;;1.20;;
39102;SDS011;24847;48.218;16.414;2023-04-25T10:05:13;2.10;;;1.25;;
39102;SDS011;24847;48.218;16.414;2023-04-25T10:10:16;3.28;;;1.23;;
39102;SDS011;24847;48.218;16.414;2023-04-25T10:15:21;1.20;;;0.80;;
39102;SDS011;24847;48.218;16.414;2023-04-25T10:20:24;1.05;;;0.73;;
39102;SDS011;24847;48.218;16.414;2023-04-25T10:25:26;1.23;;;0.80;;
39102;SDS011;24847;48.218;16.414;2023-04-25T10:30:30;1.25;;;0.60;;
39102;SDS011;24847;48.218;16.414;2023-04-25T10:35:33;0.63;;;0.57;;
39102;SDS011;24847;48.218;16.414;2023-04-25T10:40:35;1.00;;;0.55;;
39102;SDS011;24847;48.218;16.414;2023-04-25T10:45:51;1.27;;;0.60;;
39102;SDS011;24847;48.218;16.414;2023-04-25T10:51:06;0.77;;;0.60;;
39102;SDS011;24847;48.218;16.414;2023-04-25T10:56:10;0.73;;;0.45;;
39102;SDS011;24847;48.218;16.414;2023-04-25T11:01:14;0.40;;;0.40;;
39102;SDS011;24847;48.218;16.414;2023-04-25T11:06:22;1.88;;;0.63;;
39102;SDS011;24847;48.218;16.414;2023-04-25T11:11:53;1.30;;;0.80;;
39102;SDS011;24847;48.218;16.414;2023-04-25T11:16:58;1.85;;;0.82;;
39102;SDS011;24847;48.218;16.414;2023-04-25T11:22:01;1.92;;;1.15;;
39102;SDS011;24847;48.218;16.414;2023-04-25T11:27:04;1.30;;;1.00;;
39102;SDS011;24847;48.218;16.414;2023-04-25T11:32:08;1.35;;;0.80;;
39102;SDS011;24847;48.218;16.414;2023-04-25T11:37:11;1.10;;;0.80;;
39102;SDS011;24847;48.218;16.414;2023-04-25T11:42:13;1.42;;;0.95;;
39102;SDS011;24847;48.218;16.414;2023-04-25T11:47:17;1.23;;;0.60;;
39102;SDS011;24847;48.218;16.414;2023-04-25T11:52:19;0.77;;;0.73;;
39102;SDS011;24847;48.218;16.414;2023-04-25T11:57:21;2.58;;;0.68;;
39102;SDS011;24847;48.218;16.414;2023-04-25T12:02:25;1.30;;;0.70;;
39102;SDS011;24847;48.218;16.414;2023-04-25T12:07:28;1.58;;;0.80;;
39102;SDS011;24847;48.218;16.414;2023-04-25T12:12:31;1.17;;;0.60;;
39102;SDS011;24847;48.218;16.414;2023-04-25T12:17:35;0.85;;;0.65;;
39102;SDS011;24847;48.218;16.414;2023-04-25T12:22:38;1.58;;;0.60;;
39102;SDS011;24847;48.218;16.414;2023-04-25T12:27:45;0.50;;;0.50;;
39102;SDS011;24847;48.218;16.414;2023-04-25T12:32:50;2.75;;;0.70;;
39102;SDS011;24847;48.218;16.414;2023-04-25T12:37:52;1.17;;;0.60;;
39102;SDS011;24847;48.218;16.414;2023-04-25T12:42:55;0.80;;;0.70;;
39102;SDS011;24847;48.218;16.414;2023-04-25T12:47:58;1.48;;;0.63;;
39102;SDS011;24847;48.218;16.414;2023-04-25T12:53:01;0.95;;;0.60;;
39102;SDS011;24847;48.218;16.414;2023-04-25T12:58:04;0.90;;;0.50;;
39102;SDS011;24847;48.218;16.414;2023-04-25T13:03:07;0.90;;;0.70;;
39102;SDS011;24847;48.218;16.414;2023-04-25T13:08:10;0.80;;;0.60;;
39102;SDS011;24847;48.218;16.414;2023-04-25T13:13:13;1.17;;;0.65;;
39102;SDS011;24847;48.218;16.414;2023-04-25T13:18:18;0.82;;;0.57;;
39102;SDS011;24847;48.218;16.414;2023-04-25T13:23:21;0.57;;;0.52;;
39102;SDS011;24847;48.218;16.414;2023-04-25T13:28:24;0.45;;;0.40;;
39102;SDS011;24847;48.218;16.414;2023-04-25T13:33:28;0.75;;;0.60;;
39102;SDS011;24847;48.218;16.414;2023-04-25T13:38:30;0.65;;;0.60;;
39102;SDS011;24847;48.218;16.414;2023-04-25T13:43:32;0.93;;;0.60;;
39102;SDS011;24847;48.218;16.414;2023-04-25T13:48:36;1.38;;;0.60;;
39102;SDS011;24847;48.218;16.414;2023-04-25T13:53:39;0.80;;;0.68;;
39102;SDS011;24847;48.218;16.414;2023-04-25T13:58:41;1.35;;;0.60;;
39102;SDS011;24847;48.218;16.414;2023-04-25T14:03:45;1.55;;;0.50;;
39102;SDS011;24847;48.218;16.414;2023-04-25T14:08:47;1.23;;;0.60;;
39102;SDS011;24847;48.218;16.414;2023-04-25T14:13:49;0.90;;;0.50;;
39102;SDS011;24847;48.218;16.414;2023-04-25T14:18:53;1.00;;;0.50;;
39102;SDS011;24847;48.218;16.414;2023-04-25T14:23:55;1.80;;;0.47;;
39102;SDS011;24847;48.218;16.414;2023-04-25T14:28:57;0.90;;;0.57;;
39102;SDS011;24847;48.218;16.414;2023-04-25T14:34:01;1.50;;;0.57;;
39102;SDS011;24847;48.218;16.414;2023-04-25T14:39:04;0.70;;;0.50;;
39102;SDS011;24847;48.218;16.414;2023-04-25T14:44:06;0.60;;;0.50;;
39102;SDS011;24847;48.218;16.414;2023-04-25T14:49:10;1.40;;;0.43;;
39102;SDS011;24847;48.218;16.414;2023-04-25T14:54:12;1.60;;;0.70;;
39102;SDS011;24847;48.218;16.414;2023-04-25T14:59:14;0.90;;;0.70;;
39102;SDS011;24847;48.218;16.414;2023-04-25T15:04:18;1.25;;;0.60;;
39102;SDS011;24847;48.218;16.414;2023-04-25T15:09:20;1.80;;;0.57;;
39102;SDS011;24847;48.218;16.414;2023-04-25T15:14:24;0.95;;;0.60;;
39102;SDS011;24847;48.218;16.414;2023-04-25T15:19:27;1.20;;;0.82;;
39102;SDS011;24847;48.218;16.414;2023-04-25T15:24:30;3.25;;;1.10;;
39102;SDS011;24847;48.218;16.414;2023-04-25T15:29:32;1.13;;;0.88;;
39102;SDS011;24847;48.218;16.414;2023-04-25T15:34:37;0.70;;;0.60;;
39102;SDS011;24847;48.218;16.414;2023-04-25T15:39:39;0.70;;;0.60;;
39102;SDS011;24847;48.218;16.414;2023-04-25T15:44:41;1.05;;;0.60;;
39102;SDS011;24847;48.218;16.414;2023-04-25T15:49:45;1.38;;;0.60;;
39102;SDS011;24847;48.218;16.414;2023-04-25T15:54:47;0.60;;;0.57;;
39102;SDS011;24847;48.218;16.414;2023-04-25T15:59:50;1.98;;;0.40;;
39102;SDS011;24847;48.218;16.414;2023-04-25T16:04:54;3.88;;;1.50;;
39102;SDS011;24847;48.218;16.414;2023-04-25T16:09:57;1.30;;;0.57;;
39102;SDS011;24847;48.218;16.414;2023-04-25T16:14:59;0.80;;;0.60;;
39102;SDS011;24847;48.218;16.414;2023-04-25T16:20:03;2.45;;;0.38;;
39102;SDS011;24847;48.218;16.414;2023-04-25T16:25:09;0.50;;;0.40;;
39102;SDS011;24847;48.218;16.414;2023-04-25T16:30:12;1.05;;;0.35;;
39102;SDS011;24847;48.218;16.414;2023-04-25T16:35:16;0.70;;;0.30;;
39102;SDS011;24847;48.218;16.414;2023-04-25T16:40:18;0.93;;;0.70;;
39102;SDS011;24847;48.218;16.414;2023-04-25T16:45:21;0.82;;;0.65;;
39102;SDS011;24847;48.218;16.414;2023-04-25T16:50:25;0.90;;;0.60;;
39102;SDS011;24847;48.218;16.414;2023-04-25T16:55:27;1.08;;;0.38;;
39102;SDS011;24847;48.218;16.414;2023-04-25T17:00:30;1.00;;;0.70;;
39102;SDS011;24847;48.218;16.414;2023-04-25T17:05:34;0.50;;;0.40;;
39102;SDS011;24847;48.218;16.414;2023-04-25T17:10:36;0.45;;;0.40;;
39102;SDS011;24847;48.218;16.414;2023-04-25T17:15:39;0.38;;;0.32;;
39102;SDS011;24847;48.218;16.414;2023-04-25T17:20:42;1.75;;;0.40;;
39102;SDS011;24847;48.218;16.414;2023-04-25T17:25:45;2.00;;;1.05;;
39102;SDS011;24847;48.218;16.414;2023-04-25T17:30:47;1.83;;;0.95;;
39102;SDS011;24847;48.218;16.414;2023-04-25T17:35:52;1.17;;;1.00;;
39102;SDS011;24847;48.218;16.414;2023-04-25T17:40:55;1.13;;;0.80;;
39102;SDS011;24847;48.218;16.414;2023-04-25T17:45:57;0.98;;;0.80;;
39102;SDS011;24847;48.218;16.414;2023-04-25T17:51:01;0.55;;;0.52;;
39102;SDS011;24847;48.218;16.414;2023-04-25T17:56:04;1.02;;;0.77;;
39102;SDS011;24847;48.218;16.414;2023-04-25T18:01:08;0.82;;;0.65;;
39102;SDS011;24847;48.218;16.414;2023-04-25T18:06:11;0.95;;;0.63;;
39102;SDS011;24847;48.218;16.414;2023-04-25T18:11:14;1.45;;;0.90;;
39102;SDS011;24847;48.218;16.414;2023-04-25T18:16:17;0.90;;;0.75;;
39102;SDS011;24847;48.218;16.414;2023-04-25T18:21:22;1.10;;;0.80;;
39102;SDS011;24847;48.218;16.414;2023-04-25T18:26:26;0.98;;;0.85;;
39102;SDS011;24847;48.218;16.414;2023-04-25T18:31:29;0.98;;;0.80;;
39102;SDS011;24847;48.218;16.414;2023-04-25T18:36:33;0.90;;;0.57;;
39102;SDS011;24847;48.218;16.414;2023-04-25T18:41:37;1.00;;;0.70;;
39102;SDS011;24847;48.218;16.414;2023-04-25T18:46:39;1.20;;;0.77;;
39102;SDS011;24847;48.218;16.414;2023-04-25T18:51:46;1.73;;;1.33;;
39102;SDS011;24847;48.218;16.414;2023-04-25T18:56:50;1.35;;;1.05;;
39102;SDS011;24847;48.218;16.414;2023-04-25T19:01:55;0.88;;;0.80;;
39102;SDS011;24847;48.218;16.414;2023-04-25T19:07:01;0.80;;;0.70;;
39102;SDS011;24847;48.218;16.414;2023-04-25T19:12:04;0.70;;;0.70;;
39102;SDS011;24847;48.218;16.414;2023-04-25T19:17:07;0.80;;;0.60;;
39102;SDS011;24847;48.218;16.414;2023-04-25T19:22:12;0.70;;;0.50;;
39102;SDS011;24847;48.218;16.414;2023-04-25T19:27:17;0.90;;;0.63;;
39102;SDS011;24847;48.218;16.414;2023-04-25T19:32:20;0.90;;;0.70;;
39102;SDS011;24847;48.218;16.414;2023-04-25T19:37:24;0.70;;;0.50;;
39102;SDS011;24847;48.218;16.414;2023-04-25T19:42:26;2.63;;;2.20;;
39102;SDS011;24847;48.218;16.414;2023-04-25T19:47:33;1.65;;;1.10;;
39102;SDS011;24847;48.218;16.414;2023-04-25T19:52:39;0.70;;;0.70;;
39102;SDS011;24847;48.218;16.414;2023-04-25T19:57:41;1.17;;;0.80;;
39102;SDS011;24847;48.218;16.414;2023-04-25T20:02:46;0.88;;;0.73;;
39102;SDS011;24847;48.218;16.414;2023-04-25T20:07:52;2.00;;;0.85;;
39102;SDS011;24847;48.218;16.414;2023-04-25T20:12:54;0.70;;;0.60;;
39102;SDS011;24847;48.218;16.414;2023-04-25T20:17:57;0.90;;;0.50;;
39102;SDS011;24847;48.218;16.414;2023-04-25T20:23:01;0.80;;;0.55;;
39102;SDS011;24847;48.218;16.414;2023-04-25T20:28:04;1.13;;;0.70;;
39102;SDS011;24847;48.218;16.414;2023-04-25T20:33:06;1.10;;;0.77;;
39102;SDS011;24847;48.218;16.414;2023-04-25T20:38:10;1.00;;;0.90;;
39102;SDS011;24847;48.218;16.414;2023-04-25T20:43:14;1.60;;;1.23;;
39102;SDS011;24847;48.218;16.414;2023-04-25T20:48:16;0.80;;;0.70;;
39102;SDS011;24847;48.218;16.414;2023-04-25T20:53:20;0.90;;;0.75;;
39102;SDS011;24847;48.218;16.414;2023-04-25T20:58:23;0.98;;;0.88;;
39102;SDS011;24847;48.218;16.414;2023-04-25T21:03:26;1.65;;;0.90;;
39102;SDS011;24847;48.218;16.414;2023-04-25T21:08:30;1.30;;;0.93;;
39102;SDS011;24847;48.218;16.414;2023-04-25T21:13:34;1.33;;;1.05;;
39102;SDS011;24847;48.218;16.414;2023-04-25T21:18:37;1.10;;;0.90;;
39102;SDS011;24847;48.218;16.414;2023-04-25T21:23:41;1.08;;;0.98;;
39102;SDS011;24847;48.218;16.414;2023-04-25T21:28:44;1.05;;;0.82;;
39102;SDS011;24847;48.218;16.414;2023-04-25T21:33:47;0.98;;;0.88;;
39102;SDS011;24847;48.218;16.414;2023-04-25T21:38:51;1.10;;;0.75;;
39102;SDS011;24847;48.218;16.414;2023-04-25T21:43:53;0.88;;;0.82;;
39102;SDS011;24847;48.218;16.414;2023-04-25T21:48:55;0.70;;;0.65;;
39102;SDS011;24847;48.218;16.414;2023-04-25T21:53:59;0.82;;;0.80;;
39102;SDS011;24847;48.218;16.414;2023-04-25T21:59:04;0.90;;;0.75;;
39102;SDS011;24847;48.218;16.414;2023-04-25T22:04:06;1.63;;;0.90;;
39102;SDS011;24847;48.218;16.414;2023-04-25T22:09:10;1.52;;;0.85;;
39102;SDS011;24847;48.218;16.414;2023-04-25T22:14:12;1.15;;;0.98;;
39102;SDS011;24847;48.218;16.414;2023-04-25T22:19:15;1.55;;;1.25;;
39102;SDS011;24847;48.218;16.414;2023-04-25T22:24:19;2.08;;;1.70;;
39102;SDS011;24847;48.218;16.414;2023-04-25T22:29:21;2.33;;;1.60;;
39102;SDS011;24847;48.218;16.414;2023-04-25T22:34:24;2.15;;;1.92;;
39102;SDS011;24847;48.218;16.414;2023-04-25T22:39:28;2.03;;;1.88;;
39102;SDS011;24847;48.218;16.414;2023-04-25T22:44:32;2.40;;;2.17;;
39102;SDS011;24847;48.218;16.414;2023-04-25T22:49:35;2.63;;;2.10;;
39102;SDS011;24847;48.218;16.414;2023-04-25T22:54:40;2.60;;;1.90;;
39102;SDS011;24847;48.218;16.414;2023-04-25T22:59:42;2.15;;;1.85;;
39102;SDS011;24847;48.218;16.414;2023-04-25T23:04:44;2.10;;;1.95;;
39102;SDS011;24847;48.218;16.414;2023-04-25T23:09:48;2.80;;;2.08;;
39102;SDS011;24847;48.218;16.414;2023-04-25T23:14:52;3.15;;;2.17;;
39102;SDS011;24847;48.218;16.414;2023-04-25T23:19:55;2.42;;;2.22;;
39102;SDS011;24847;48.218;16.414;2023-04-25T23:24:59;2.78;;;2.10;;
39102;SDS011;24847;48.218;16.414;2023-04-25T23:30:02;2.80;;;2.17;;
39102;SDS011;24847;48.218;16.414;2023-04-25T23:35:05;2.60;;;2.30;;
39102;SDS011;24847;48.218;16.414;2023-04-25T23:40:10;2.60;;;2.00;;
39102;SDS011;24847;48.218;16.414;2023-04-25T23:45:13;2.63;;;2.20;;
39102;SDS011;24847;48.218;16.414;2023-04-25T23:50:15;3.22;;;2.28;;
39102;SDS011;24847;48.218;16.414;2023-04-25T23:55:19;3.58;;;2.47;;
